Time;durP1;ratioP1;P1;durP2;ratioP2;P2;SDS_P1;SDS_P2;PMS_P1;PMS_P2;Temp;Humidity;BMP_temperature;BMP_pressure;BME280_temperature;BME280_humidity;BME280_pressure;Samples;Min_cycle;Max_cycle;Signal;HPM_P1;HPM_P2
2023/07/18 00:02:08;;;;;;;3.30;2.20;;;;;;;;;;5149469;28;20461;-90
2023/07/18 00:04:37;;;;;;;2.80;2.57;;;;;;;;;;5153550;27;20462;-89
2023/07/18 00:09:55;;;;;;;9.03;2.30;;;17.70;99.90;;;;;;5329799;22;20495;-89
2023/07/18 00:12:23;;;;;;;6.10;2.73;;;;;;;;;;5091664;28;20461;-90
2023/07/18 00:14:50;;;;;;;2.30;2.00;;;;;;;;;;5099070;28;20464;-89
2023/07/18 00:17:17;;;;;;;4.67;2.60;;;;;;;;;;5113877;28;20470;-88
2023/07/18 00:19:45;;;;;;;2.20;2.10;;;;;;;;;;5131897;22;20492;-90
2023/07/18 00:22:13;;;;;;;3.43;2.70;;;;;;;;;;5077313;28;20461;-89
2023/07/18 00:24:42;;;;;;;6.63;2.90;;;17.40;1.00;;;;;;5083443;28;20433;-89
2023/07/18 00:27:16;;;;;;;3.87;2.00;;;17.40;1.00;;;;;;5097143;28;20433;-89
2023/07/18 00:29:43;;;;;;;3.13;2.80;;;;;;;;;;5098213;28;20420;-89
2023/07/18 00:32:11;;;;;;;3.97;2.33;;;17.40;1.00;;;;;;5099365;28;20440;-89
2023/07/18 00:34:40;;;;;;;4.10;3.07;;;;;;;;;;5100015;28;20439;-90
2023/07/18 00:39:45;;;;;;;2.83;2.63;;;17.40;99.90;;;;;;5130820;22;20506;-88
2023/07/18 00:42:21;;;;;;;3.53;2.10;;;17.30;1.00;;;;;;5080630;28;20472;-89
2023/07/18 00:44:50;;;;;;;5.90;2.50;;;17.20;1.00;;;;;;5086875;28;20463;-90
2023/07/18 00:47:22;;;;;;;3.43;2.37;;;;;;;;;;5098658;28;20440;-89
2023/07/18 00:49:52;;;;;;;5.00;2.90;;;;;;;;;;5097070;28;20440;-89
2023/07/18 00:52:21;;;;;;;4.87;2.57;;;;;;;;;;5089460;28;20444;-89
2023/07/18 00:54:48;;;;;;;3.70;2.30;;;;;;;;;;5084709;28;20482;-90
2023/07/18 00:57:38;;;;;;;4.77;2.33;;;17.10;1.00;;;;;;5085744;28;20472;-90
2023/07/18 01:00:22;;;;;;;3.20;2.90;;;17.10;1.00;;;;;;5083683;28;20432;-89
2023/07/18 01:03:00;;;;;;;3.20;2.80;;;17.10;1.00;;;;;;5089528;28;20452;-90
2023/07/18 01:05:39;;;;;;;4.27;2.83;;;17.00;1.00;;;;;;5083256;28;20444;-89
2023/07/18 01:08:14;;;;;;;5.33;2.70;;;17.00;1.00;;;;;;5083249;28;20476;-89
2023/07/18 01:10:49;;;;;;;2.87;2.60;;;17.00;1.00;;;;;;5082657;28;20523;-90
2023/07/18 01:13:28;;;;;;;3.20;2.90;;;15.80;1.00;;;;;;5083357;28;20908;-89
2023/07/18 01:15:56;;;;;;;4.03;3.00;;;;;;;;;;5084747;28;20539;-90
2023/07/18 01:18:26;;;;;;;3.30;3.00;;;;;;;;;;5083250;28;20456;-90
2023/07/18 01:20:59;;;;;;;2.33;2.13;;;17.10;1.00;;;;;;5084252;28;20935;-90
2023/07/18 01:23:40;;;;;;;4.23;3.03;;;17.00;1.00;;;;;;5095698;28;20440;-90
2023/07/18 01:28:54;;;;;;;6.03;2.70;;;17.10;1.00;;;;;;5089231;28;20475;-89
2023/07/18 01:31:21;;;;;;;3.00;2.70;;;;;;;;;;5093725;28;20452;-90
2023/07/18 01:33:51;;;;;;;3.37;3.07;;;17.10;1.00;;;;;;5092870;28;20429;-89
2023/07/18 01:36:18;;;;;;;3.37;3.07;;;17.00;1.00;;;;;;5089464;28;21025;-89
2023/07/18 01:38:50;;;;;;;2.67;2.47;;;16.90;99.90;;;;;;5090050;28;20482;-89
2023/07/18 01:41:19;;;;;;;4.30;3.07;;;16.70;1.00;;;;;;5088443;28;20410;-89
2023/07/18 01:43:46;;;;;;;4.57;3.40;;;;;;;;;;5090978;28;20478;-89
2023/07/18 01:46:13;;;;;;;2.80;2.60;;;;;;;;;;5083901;28;20503;-89
2023/07/18 01:48:41;;;;;;;3.33;2.90;;;;;;;;;;5084320;28;21019;-89
2023/07/18 01:51:08;;;;;;;3.30;3.00;;;;;;;;;;5082457;28;20538;-89
2023/07/18 01:53:36;;;;;;;4.40;3.60;;;;;;;;;;5083478;28;20444;-89
2023/07/18 01:56:05;;;;;;;2.90;2.70;;;16.60;60.00;;;;;;5082855;28;20999;-89
2023/07/18 01:58:33;;;;;;;4.77;2.93;;;;;;;;;;5083272;28;20448;-89
2023/07/18 02:01:05;;;;;;;4.80;2.50;;;16.50;23.80;;;;;;5083008;28;20795;-89
2023/07/18 02:03:33;;;;;;;4.20;3.00;;;;;;;;;;5082091;28;20446;-89
2023/07/18 02:06:01;;;;;;;3.03;2.70;;;;;;;;;;5081047;28;20479;-88
2023/07/18 02:08:32;;;;;;;2.80;2.60;;;;;;;;;;5082226;28;20473;-88
2023/07/18 02:11:01;;;;;;;4.17;3.37;;;;;;;;;;5084433;28;20443;-90
2023/07/18 02:13:30;;;;;;;2.70;2.50;;;16.40;90.70;;;;;;5080911;28;20451;-89
2023/07/18 02:15:57;;;;;;;2.53;2.10;;;;;;;;;;5081572;28;20502;-89
2023/07/18 02:18:29;;;;;;;3.50;3.20;;;16.30;91.20;;;;;;5082849;28;20516;-89
2023/07/18 02:20:58;;;;;;;3.00;2.70;;;;;;;;;;5084821;28;20449;-89
2023/07/18 02:23:31;;;;;;;3.60;2.50;;;;;;;;;;5088684;28;20434;-89
2023/07/18 02:26:01;;;;;;;3.60;3.30;;;;;;;;;;5090571;28;20527;-90
2023/07/18 02:28:40;;;;;;;3.57;2.67;;;16.10;99.90;;;;;;5080528;28;20856;-89
2023/07/18 02:31:10;;;;;;;3.73;2.70;;;16.10;99.90;;;;;;5083010;28;20451;-90
2023/07/18 02:33:46;;;;;;;3.30;3.00;;;;;;;;;;5082147;28;20422;-89
2023/07/18 02:36:19;;;;;;;3.13;2.87;;;16.10;99.90;;;;;;5081061;28;20497;-89
2023/07/18 02:38:47;;;;;;;4.90;3.60;;;;;;;;;;5080547;28;20455;-88
2023/07/18 02:41:17;;;;;;;3.27;3.00;;;;;;;;;;5081035;28;20484;-88
2023/07/18 02:43:48;;;;;;;2.93;2.63;;;16.00;99.90;;;;;;5082802;28;20469;-91
2023/07/18 02:46:16;;;;;;;2.60;2.30;;;;;;;;;;5090904;28;20472;-89
2023/07/18 02:48:43;;;;;;;4.60;4.30;;;;;;;;;;5080974;28;20538;-88
2023/07/18 02:51:14;;;;;;;3.70;2.83;;;15.90;1.00;;;;;;5082608;28;20462;-88
2023/07/18 02:53:44;;;;;;;3.27;3.00;;;;;;;;;;5081586;28;20497;-89
2023/07/18 02:58:47;;;;;;;2.90;2.70;;;13.30;1.00;;;;;;5017676;28;20509;-89
2023/07/18 03:01:14;;;;;;;3.43;3.13;;;;;;;;;;5018156;28;20448;-89
2023/07/18 03:03:42;;;;;;;5.33;3.40;;;15.80;1.00;;;;;;5006663;28;20420;-88
2023/07/18 03:06:24;;;;;;;5.47;3.43;;;15.80;1.00;;;;;;5008998;28;20487;-89
2023/07/18 03:08:52;;;;;;;4.67;2.90;;;;;;;;;;5002694;28;20471;-89
2023/07/18 03:11:19;;;;;;;3.90;3.30;;;;;;;;;;5001928;28;20454;-89
2023/07/18 03:13:48;;;;;;;4.07;3.67;;;15.80;1.00;;;;;;5001443;28;21013;-90
2023/07/18 03:16:16;;;;;;;4.53;3.50;;;;;;;;;;5001729;28;20528;-90
2023/07/18 03:19:00;;;;;;;;;;;;;;;;;;;;;
2023/07/18 03:21:30;;;;;;;3.43;3.13;;;15.80;1.00;;;;;;5002013;28;20441;-89
2023/07/18 03:24:08;;;;;;;3.63;3.33;;;15.70;1.00;;;;;;5002409;28;20468;-89
2023/07/18 03:26:40;;;;;;;3.40;2.93;;;;;;;;;;5001054;28;20520;-89
2023/07/18 03:29:20;;;;;;;7.73;3.20;;;15.80;1.00;;;;;;5012397;28;20496;-90
2023/07/18 03:31:55;;;;;;;3.80;3.47;;;15.70;1.00;;;;;;5015412;28;20821;-90
2023/07/18 03:34:27;;;;;;;3.77;3.03;;;;;;;;;;5001345;28;20511;-89
2023/07/18 03:37:02;;;;;;;3.80;3.37;;;;;;;;;;5001503;28;20443;-90
2023/07/18 03:39:42;;;;;;;5.57;3.33;;;15.60;1.00;;;;;;5002891;28;20432;-89
2023/07/18 03:42:14;;;;;;;3.70;3.10;;;15.60;99.90;;;;;;5002047;28;20536;-89
2023/07/18 03:44:46;;;;;;;4.17;3.83;;;15.70;99.90;;;;;;5000823;28;20884;-89
2023/07/18 03:47:14;;;;;;;6.40;3.80;;;;;;;;;;5002556;28;20548;-90
2023/07/18 03:49:50;;;;;;;4.10;3.80;;;15.70;1.00;;;;;;5006168;28;20471;-89
2023/07/18 03:52:29;;;;;;;7.50;4.70;;;15.60;1.00;;;;;;5001327;28;20450;-90
2023/07/18 03:54:57;;;;;;;6.90;4.27;;;;;;;;;;5005743;28;20478;-90
2023/07/18 03:57:29;;;;;;;4.93;3.30;;;;;;;;;;5006137;28;20534;-89
2023/07/18 03:59:59;;;;;;;4.97;4.10;;;15.50;1.00;;;;;;5005349;28;20459;-90
2023/07/18 04:02:37;;;;;;;3.93;3.50;;;15.60;1.00;;;;;;5004252;28;20440;-91
2023/07/18 04:07:51;;;;;;;6.90;3.70;;;;;;;;;;5004287;28;20545;-89
2023/07/18 04:10:21;;;;;;;6.97;4.53;;;;;;;;;;5007278;28;20492;-89
2023/07/18 04:12:55;;;;;;;6.63;4.10;;;15.60;1.00;;;;;;5008263;28;20966;-89
2023/07/18 04:15:26;;;;;;;4.80;3.73;;;15.60;1.00;;;;;;5018281;28;20480;-88
2023/07/18 04:18:00;;;;;;;4.90;3.87;;;15.50;1.00;;;;;;5018714;28;20432;-89
2023/07/18 04:20:30;;;;;;;4.50;4.10;;;;;;;;;;5018221;28;20448;-88
2023/07/18 04:23:00;;;;;;;6.43;4.00;;;;;;;;;;5014759;28;20421;-89
2023/07/18 04:25:34;;;;;;;5.03;4.47;;;15.50;1.00;;;;;;5008885;28;20465;-89
2023/07/18 04:28:02;;;;;;;8.70;6.87;;;;;;;;;;5007101;28;20952;-89
2023/07/18 04:30:43;;;;;;;7.40;4.87;;;15.70;1.00;;;;;;5014048;28;20489;-90
2023/07/18 04:33:12;;;;;;;10.73;5.00;;;;;;;;;;5010678;28;20461;-88
2023/07/18 04:35:44;;;;;;;7.20;4.53;;;15.70;1.00;;;;;;5006858;28;20458;-89
2023/07/18 04:38:16;;;;;;;6.97;4.70;;;;;;;;;;5006771;28;20454;-89
2023/07/18 04:40:44;;;;;;;5.40;4.90;;;;;;;;;;5004078;28;20484;-89
2023/07/18 04:43:11;;;;;;;6.93;5.10;;;;;;;;;;5004515;28;20517;-89
2023/07/18 04:45:47;;;;;;;24.63;5.83;;;15.70;1.00;;;;;;5003819;28;20477;-89
2023/07/18 04:48:15;;;;;;;4.87;4.13;;;;;;;;;;5003907;28;20456;-88
2023/07/18 04:50:43;;;;;;;6.97;4.93;;;;;;;;;;5004487;28;20480;-89
2023/07/18 04:53:13;;;;;;;8.37;3.60;;;15.80;99.90;;;;;;5004289;28;20461;-89
2023/07/18 04:55:41;;;;;;;7.03;4.50;;;;;;;;;;5003196;28;20825;-89
2023/07/18 04:58:09;;;;;;;5.80;4.57;;;15.90;99.90;;;;;;5002116;28;20473;-89
2023/07/18 05:00:37;;;;;;;5.97;4.37;;;;;;;;;;5055072;22;20474;-89
2023/07/18 05:03:05;;;;;;;4.40;3.97;;;15.90;99.90;;;;;;5084224;28;20430;-88
2023/07/18 05:05:32;;;;;;;5.40;4.90;;;16.00;99.90;;;;;;5097521;28;20427;-89
2023/07/18 05:08:00;;;;;;;6.63;4.33;;;16.00;98.20;;;;;;5089159;28;20472;-88
2023/07/18 05:10:27;;;;;;;5.50;4.60;;;16.30;99.90;;;;;;5088698;28;20477;-89
2023/07/18 05:12:58;;;;;;;6.57;4.67;;;16.40;99.90;;;;;;5101022;28;20444;-89
2023/07/18 05:15:25;;;;;;;7.17;4.13;;;16.60;1.00;;;;;;5099447;28;20503;-90
2023/07/18 05:17:52;;;;;;;6.13;4.73;;;16.50;1.00;;;;;;5099030;28;20549;-90
2023/07/18 05:20:20;;;;;;;4.93;3.90;;;16.60;45.50;;;;;;5098351;28;21039;-89
2023/07/18 05:22:47;;;;;;;5.23;4.43;;;16.50;37.00;;;;;;5100605;28;20998;-90
2023/07/18 05:25:16;;;;;;;8.70;4.63;;;16.50;40.40;;;;;;5106298;28;20473;-89
2023/07/18 05:27:43;;;;;;;4.37;3.97;;;16.30;65.50;;;;;;5112469;28;20511;-90
2023/07/18 05:30:13;;;;;;;7.20;4.43;;;16.20;1.00;;;;;;5099914;28;20479;-90
2023/07/18 05:32:40;;;;;;;5.00;4.20;;;16.40;41.20;;;;;;5098347;28;20465;-90
2023/07/18 05:35:09;;;;;;;6.43;4.33;;;16.50;22.90;;;;;;5102689;28;20459;-90
2023/07/18 05:37:39;;;;;;;7.33;5.90;;;16.50;36.20;;;;;;5100640;28;20506;-91
2023/07/18 05:40:09;;;;;;;8.13;4.20;;;;;;;;;;5098927;28;20455;-91
2023/07/18 05:42:36;;;;;;;5.20;4.40;;;;;;;;;;5097695;28;20432;-88
2023/07/18 05:45:03;;;;;;;5.07;3.90;;;17.10;99.90;;;;;;5097597;28;20457;-89
2023/07/18 05:47:36;;;;;;;8.53;6.60;;;16.70;1.00;;;;;;5097911;28;20860;-88
2023/07/18 05:50:03;;;;;;;5.80;4.03;;;16.80;99.90;;;;;;5097204;28;20470;-89
2023/07/18 05:52:30;;;;;;;5.47;3.47;;;17.10;99.90;;;;;;5098173;28;21043;-89
2023/07/18 05:54:58;;;;;;;8.47;4.17;;;17.10;1.00;;;;;;5098453;28;20447;-88
2023/07/18 05:57:26;;;;;;;5.43;3.97;;;17.40;99.90;;;;;;5101056;28;20485;-90
2023/07/18 05:59:53;;;;;;;3.83;3.40;;;;;;;;;;5117472;28;20468;-88
2023/07/18 06:02:21;;;;;;;5.30;3.67;;;17.10;1.00;;;;;;5119166;27;20464;-87
2023/07/18 06:04:48;;;;;;;5.80;4.20;;;17.30;1.00;;;;;;5120108;27;20455;-87
2023/07/18 06:07:15;;;;;;;3.73;3.33;;;17.40;1.00;;;;;;5119994;27;20420;-87
2023/07/18 06:09:43;;;;;;;5.70;3.50;;;17.20;1.00;;;;;;5119565;27;20486;-88
2023/07/18 06:12:16;;;;;;;5.00;4.27;;;17.30;99.90;;;;;;5119755;27;20471;-87
2023/07/18 06:14:42;;;;;;;4.23;3.33;;;17.50;1.00;;;;;;5119836;27;20432;-88
2023/07/18 06:17:09;;;;;;;4.20;3.80;;;17.20;99.90;;;;;;5119161;27;20421;-88
2023/07/18 06:19:41;;;;;;;8.23;4.70;;;17.40;1.00;;;;;;5117167;27;20483;-88
2023/07/18 06:22:09;;;;;;;6.60;3.80;;;;;;;;;;5100915;28;20478;-88
2023/07/18 06:24:36;;;;;;;5.00;3.90;;;;;;;;;;5098666;28;20471;-89
2023/07/18 06:27:04;;;;;;;6.10;4.27;;;;;;;;;;5097591;28;20820;-88
2023/07/18 06:29:32;;;;;;;4.77;4.00;;;17.70;1.00;;;;;;5098698;28;20476;-88
2023/07/18 06:32:02;;;;;;;7.50;4.07;;;;;;;;;;5110088;28;20465;-88
2023/07/18 06:34:30;;;;;;;5.40;4.77;;;17.90;1.00;;;;;;5099787;28;20459;-89
2023/07/18 06:36:59;;;;;;;5.00;3.57;;;18.20;1.00;;;;;;5097901;28;20520;-89
2023/07/18 06:39:26;;;;;;;4.50;4.03;;;18.10;1.00;;;;;;5105366;28;20428;-88
2023/07/18 06:41:53;;;;;;;5.70;3.50;;;18.30;1.00;;;;;;5116843;28;20444;-88
2023/07/18 06:44:20;;;;;;;11.60;4.10;;;18.30;1.00;;;;;;5117653;28;20444;-88
2023/07/18 06:46:49;;;;;;;3.97;3.57;;;18.30;99.90;;;;;;5111610;27;20463;-88
2023/07/18 06:49:18;;;;;;;4.60;4.17;;;18.50;99.90;;;;;;5113575;27;20523;-88
2023/07/18 06:51:45;;;;;;;9.67;3.53;;;18.60;99.90;;;;;;5118522;27;20476;-88
2023/07/18 06:54:12;;;;;;;4.63;4.23;;;18.50;99.90;;;;;;5119115;27;20436;-88
2023/07/18 06:56:40;;;;;;;3.60;3.30;;;19.00;1.00;;;;;;5110120;27;20498;-88
2023/07/18 06:59:07;;;;;;;5.63;3.23;;;18.70;1.00;;;;;;5101211;28;20456;-88
2023/07/18 07:01:34;;;;;;;4.53;3.97;;;18.90;1.00;;;;;;5099910;28;20528;-89
2023/07/18 07:04:05;;;;;;;4.47;3.30;;;19.00;78.70;;;;;;5107190;28;20541;-88
2023/07/18 07:06:32;;;;;;;4.37;3.03;;;19.10;1.00;;;;;;5115952;27;20455;-88
2023/07/18 07:08:59;;;;;;;6.97;3.70;;;18.70;1.00;;;;;;5114169;28;20459;-88
2023/07/18 07:11:27;;;;;;;5.53;3.33;;;18.90;1.00;;;;;;5116336;28;20463;-88
2023/07/18 07:13:54;;;;;;;7.13;4.30;;;19.10;1.00;;;;;;5112480;28;20534;-88
2023/07/18 07:16:22;;;;;;;10.50;3.83;;;19.00;1.00;;;;;;5107086;28;20447;-88
2023/07/18 07:18:50;;;;;;;5.63;3.47;;;19.10;1.00;;;;;;5106333;28;20840;-89
2023/07/18 07:21:19;;;;;;;6.00;3.73;;;19.00;90.60;;;;;;5103146;28;20462;-88
2023/07/18 07:23:45;;;;;;;8.10;3.47;;;19.30;1.00;;;;;;5100806;28;20478;-89
2023/07/18 07:26:13;;;;;;;9.37;5.40;;;19.00;63.10;;;;;;5098514;28;20462;-89
2023/07/18 07:28:41;;;;;;;5.10;4.20;;;;;;;;;;5099450;28;20443;-89
2023/07/18 07:31:09;;;;;;;4.57;3.00;;;;;;;;;;5106285;28;20484;-88
2023/07/18 07:33:37;;;;;;;3.57;3.27;;;;;;;;;;5104448;28;20479;-88
2023/07/18 07:36:04;;;;;;;6.20;3.40;;;19.60;99.90;;;;;;5104252;28;20440;-88
2023/07/18 07:38:33;;;;;;;3.77;3.20;;;19.50;99.90;;;;;;5112795;28;20448;-88
2023/07/18 07:41:00;;;;;;;6.70;3.80;;;;;;;;;;5120310;28;20470;-88
2023/07/18 07:43:27;;;;;;;5.37;3.97;;;;;;;;;;5119490;27;20428;-88
2023/07/18 07:45:54;;;;;;;5.00;3.70;;;;;;;;;;5103973;28;20857;-89
2023/07/18 07:48:23;;;;;;;6.87;5.33;;;;;;;;;;5107321;28;20435;-89
2023/07/18 07:50:51;;;;;;;5.77;4.83;;;;;;;;;;5108383;28;20483;-88
2023/07/18 07:53:18;;;;;;;5.27;3.97;;;;;;;;;;5109142;28;20448;-89
2023/07/18 07:55:50;;;;;;;6.60;4.53;;;20.90;99.90;;;;;;5108901;28;20448;-89
2023/07/18 07:58:23;;;;;;;4.07;3.27;;;20.20;1.00;;;;;;5111636;28;20471;-89
2023/07/18 08:00:51;;;;;;;10.43;7.10;;;;;;;;;;5114815;28;20479;-89
2023/07/18 08:03:18;;;;;;;12.90;5.67;;;;;;;;;;5112073;28;20828;-89
2023/07/18 08:05:45;;;;;;;5.37;3.80;;;;;;;;;;5103807;28;20452;-89
2023/07/18 08:08:12;;;;;;;17.77;6.50;;;;;;;;;;5101953;28;20819;-89
2023/07/18 08:10:40;;;;;;;25.67;7.10;;;20.10;99.90;;;;;;5101353;28;20475;-89
2023/07/18 08:13:10;;;;;;;6.63;3.13;;;20.30;99.90;;;;;;5101631;28;20477;-88
2023/07/18 08:15:37;;;;;;;4.80;2.83;;;;;;;;;;5109569;27;20427;-90
2023/07/18 08:18:04;;;;;;;3.57;2.90;;;20.40;99.90;;;;;;5107312;28;20428;-88
2023/07/18 08:20:32;;;;;;;3.60;2.93;;;20.20;1.00;;;;;;5103283;28;20470;-89
2023/07/18 08:23:01;;;;;;;6.17;2.50;;;20.10;99.90;;;;;;5108460;28;20444;-89
2023/07/18 08:25:28;;;;;;;3.77;2.93;;;20.20;99.90;;;;;;5110505;28;20791;-89
2023/07/18 08:27:55;;;;;;;3.00;2.80;;;20.30;99.90;;;;;;5102520;28;20467;-88
2023/07/18 08:30:23;;;;;;;3.47;3.10;;;20.30;99.90;;;;;;5107314;28;20574;-88
2023/07/18 08:32:50;;;;;;;2.80;2.30;;;20.40;99.90;;;;;;5108814;28;20448;-89
2023/07/18 08:35:20;;;;;;;3.20;2.23;;;20.30;1.00;;;;;;5110881;28;20440;-88
2023/07/18 08:37:47;;;;;;;9.13;2.70;;;20.50;99.90;;;;;;5109184;28;20807;-89
2023/07/18 08:40:14;;;;;;;3.90;2.53;;;20.50;99.90;;;;;;5101986;28;20475;-89
2023/07/18 08:42:41;;;;;;;3.73;2.20;;;21.10;1.00;;;;;;5102215;28;20444;-89
2023/07/18 08:45:10;;;;;;;3.50;2.73;;;20.80;99.90;;;;;;5109019;28;20471;-90
2023/07/18 08:47:40;;;;;;;5.30;2.40;;;20.90;99.90;;;;;;5116166;28;20485;-89
2023/07/18 08:50:10;;;;;;;4.47;2.70;;;21.10;1.00;;;;;;5111956;28;20531;-89
2023/07/18 08:52:38;;;;;;;3.20;2.23;;;21.30;99.90;;;;;;5106660;28;20788;-89
2023/07/18 08:55:08;;;;;;;6.60;2.77;;;21.50;1.00;;;;;;5102191;28;20451;-90
2023/07/18 08:57:35;;;;;;;7.60;3.03;;;21.30;99.90;;;;;;5102588;28;20444;-89
2023/07/18 09:00:04;;;;;;;6.33;3.10;;;21.40;1.00;;;;;;5099793;28;20562;-88
2023/07/18 09:02:37;;;;;;;2.20;2.00;;;21.60;99.90;;;;;;5099601;28;20489;-89
2023/07/18 09:05:06;;;;;;;4.10;2.17;;;21.50;99.90;;;;;;5102334;28;20853;-88
2023/07/18 09:07:41;;;;;;;7.30;2.20;;;21.30;99.90;;;;;;5110592;28;20432;-89
2023/07/18 09:10:09;;;;;;;6.63;2.30;;;21.30;1.00;;;;;;5119834;28;20509;-88
2023/07/18 09:12:36;;;;;;;2.93;2.63;;;;;;;;;;5111876;27;20943;-88
2023/07/18 09:15:04;;;;;;;4.03;2.87;;;21.00;99.90;;;;;;5102911;28;20436;-88
2023/07/18 09:17:32;;;;;;;2.67;1.80;;;;;;;;;;5103976;28;20822;-87
2023/07/18 09:20:08;;;;;;;5.20;2.90;;;21.30;99.90;;;;;;5100018;28;20440;-89
2023/07/18 09:22:40;;;;;;;1.97;1.77;;;21.20;99.90;;;;;;5097556;28;20504;-89
2023/07/18 09:25:08;;;;;;;2.83;2.27;;;21.20;99.90;;;;;;5100060;28;20452;-89
2023/07/18 09:27:39;;;;;;;2.87;2.33;;;21.40;99.90;;;;;;5099852;28;20452;-90
2023/07/18 09:30:08;;;;;;;3.43;2.20;;;;;;;;;;5101048;28;20467;-88
2023/07/18 09:32:35;;;;;;;3.60;2.67;;;;;;;;;;5100873;28;20444;-88
2023/07/18 09:35:02;;;;;;;4.83;3.07;;;;;;;;;;5100638;28;20525;-89
2023/07/18 09:37:32;;;;;;;3.23;2.93;;;21.70;99.90;;;;;;5099930;28;20846;-89
2023/07/18 09:40:03;;;;;;;4.20;2.77;;;21.60;99.90;;;;;;5098914;28;20439;-89
2023/07/18 09:42:32;;;;;;;4.27;2.10;;;21.60;99.90;;;;;;5099132;28;20456;-89
2023/07/18 09:44:59;;;;;;;3.00;2.20;;;21.60;99.90;;;;;;5100275;28;20444;-89
2023/07/18 09:47:26;;;;;;;3.50;2.30;;;21.50;1.00;;;;;;5102267;28;20470;-89
2023/07/18 09:49:54;;;;;;;3.47;2.37;;;;;;;;;;5097616;28;21028;-89
2023/07/18 09:52:27;;;;;;;2.80;2.00;;;21.90;99.90;;;;;;5098695;28;20534;-89
2023/07/18 09:54:57;;;;;;;4.50;2.00;;;21.80;99.90;;;;;;5099460;28;20438;-89
2023/07/18 09:57:25;;;;;;;7.00;3.17;;;21.80;99.90;;;;;;5113671;28;20539;-88
2023/07/18 09:59:54;;;;;;;2.60;2.10;;;22.00;1.00;;;;;;5118364;27;20455;-88
2023/07/18 10:02:23;;;;;;;9.30;2.37;;;22.00;99.90;;;;;;5117740;28;20471;-88
2023/07/18 10:04:50;;;;;;;2.33;1.93;;;22.30;1.00;;;;;;5118369;27;20462;-88
2023/07/18 10:07:18;;;;;;;3.17;2.10;;;22.10;99.90;;;;;;5119719;27;20435;-88
2023/07/18 10:09:45;;;;;;;2.73;2.00;;;22.20;99.90;;;;;;5119777;27;20437;-87
2023/07/18 10:12:13;;;;;;;2.97;1.90;;;22.20;99.90;;;;;;5118246;28;20498;-89
2023/07/18 10:14:58;;;;;;;2.60;1.80;;;22.10;99.90;;;;;;5114104;28;20440;-88
2023/07/18 10:17:36;;;;;;;2.10;1.90;;;22.10;99.90;;;;;;5103784;28;20454;-89
2023/07/18 10:20:10;;;;;;;1.53;1.27;;;22.20;1.00;;;;;;5100724;28;20558;-90
2023/07/18 10:22:37;;;;;;;3.27;2.13;;;22.50;1.00;;;;;;5099578;28;20873;-89
2023/07/18 10:25:07;;;;;;;3.40;2.00;;;22.50;99.90;;;;;;5100608;28;20994;-89
2023/07/18 10:27:39;;;;;;;2.90;2.27;;;22.60;99.90;;;;;;5100303;28;20888;-89
2023/07/18 10:30:07;;;;;;;3.67;1.63;;;22.70;1.00;;;;;;5108646;27;20455;-89
2023/07/18 10:32:37;;;;;;;3.90;2.13;;;22.70;99.90;;;;;;5100130;28;20447;-89
2023/07/18 10:35:08;;;;;;;2.87;1.70;;;22.70;99.90;;;;;;5100498;28;20454;-89
2023/07/18 10:37:36;;;;;;;1.97;1.70;;;22.90;99.90;;;;;;5116046;27;20448;-88
2023/07/18 10:40:06;;;;;;;2.27;1.97;;;23.00;1.00;;;;;;5118746;27;20441;-89
2023/07/18 10:42:34;;;;;;;2.13;1.93;;;23.10;99.90;;;;;;5118978;27;20444;-88
2023/07/18 10:45:05;;;;;;;3.00;1.40;;;23.10;99.90;;;;;;5115006;28;20428;-88
2023/07/18 10:47:33;;;;;;;3.90;2.20;;;23.50;1.00;;;;;;5113401;28;20494;-89
2023/07/18 10:50:00;;;;;;;3.93;2.03;;;23.30;1.00;;;;;;5107317;28;20470;-89
2023/07/18 10:52:28;;;;;;;2.57;2.00;;;23.20;99.90;;;;;;5105447;28;20547;-88
2023/07/18 10:54:56;;;;;;;5.90;2.00;;;23.30;99.90;;;;;;5109955;28;20456;-89
2023/07/18 10:57:27;;;;;;;4.33;1.90;;;23.50;99.90;;;;;;5117794;27;20479;-89
2023/07/18 10:59:55;;;;;;;3.40;1.93;;;23.00;1.00;;;;;;5118424;27;20448;-88
2023/07/18 11:02:23;;;;;;;3.17;1.83;;;23.10;99.90;;;;;;5069124;22;20522;-89
2023/07/18 11:04:53;;;;;;;3.67;2.23;;;22.50;99.90;;;;;;5041666;28;20454;-90
2023/07/18 11:07:31;;;;;;;3.23;1.80;;;22.80;99.90;;;;;;5046380;28;20450;-89
2023/07/18 11:09:58;;;;;;;2.10;1.80;;;23.00;99.90;;;;;;5052805;28;20439;-90
2023/07/18 11:12:25;;;;;;;4.60;1.63;;;23.20;1.00;;;;;;5074009;28;20523;-88
2023/07/18 11:14:52;;;;;;;3.80;3.40;;;22.60;99.90;;;;;;5076276;28;20501;-89
2023/07/18 11:17:20;;;;;;;3.30;1.60;;;23.00;99.90;;;;;;5075035;28;20430;-88
2023/07/18 11:19:48;;;;;;;2.43;1.70;;;23.20;99.90;;;;;;5070934;28;20501;-89
2023/07/18 11:22:16;;;;;;;2.23;2.00;;;23.20;99.90;;;;;;5069178;28;20545;-88
2023/07/18 11:24:45;;;;;;;1.77;1.67;;;23.40;99.90;;;;;;5065832;28;20450;-89
2023/07/18 11:27:15;;;;;;;4.77;2.80;;;23.40;99.90;;;;;;5067425;28;20460;-88
2023/07/18 11:29:42;;;;;;;2.13;1.73;;;;;;;;;;5065195;28;20450;-88
2023/07/18 11:32:10;;;;;;;4.50;1.70;;;23.50;99.90;;;;;;5061326;28;20491;-89
2023/07/18 11:34:36;;;;;;;2.67;1.87;;;23.50;99.90;;;;;;5067956;28;20460;-88
2023/07/18 11:37:07;;;;;;;1.90;1.67;;;23.30;1.00;;;;;;5078232;28;20462;-87
2023/07/18 11:39:34;;;;;;;2.93;2.40;;;23.30;99.90;;;;;;5072770;28;20437;-89
2023/07/18 11:42:08;;;;;;;3.27;2.40;;;23.40;99.90;;;;;;5075789;28;20458;-88
2023/07/18 11:44:35;;;;;;;2.70;1.90;;;23.50;99.90;;;;;;5068743;28;20502;-89
2023/07/18 11:47:02;;;;;;;4.87;1.47;;;;;;;;;;5064200;28;20438;-89
2023/07/18 11:49:36;;;;;;;3.57;1.87;;;23.30;1.00;;;;;;5074986;28;20456;-88
2023/07/18 11:52:05;;;;;;;2.40;1.37;;;23.30;1.00;;;;;;5059854;28;20489;-89
2023/07/18 11:54:35;;;;;;;3.47;1.50;;;23.70;99.90;;;;;;5060902;28;20481;-88
2023/07/18 11:57:03;;;;;;;1.90;1.77;;;23.70;99.90;;;;;;5062327;28;20932;-87
2023/07/18 11:59:30;;;;;;;3.60;1.57;;;23.80;99.90;;;;;;5064067;28;20489;-87
2023/07/18 12:01:57;;;;;;;2.17;2.00;;;23.90;99.90;;;;;;5077203;28;20491;-87
2023/07/18 12:04:24;;;;;;;4.70;3.33;;;23.90;99.90;;;;;;5076306;28;20497;-88
2023/07/18 12:06:51;;;;;;;2.10;1.90;;;;;;;;;;5062132;28;20484;-89
2023/07/18 12:09:20;;;;;;;2.00;1.80;;;24.00;99.90;;;;;;5059298;28;20477;-88
2023/07/18 12:11:47;;;;;;;2.50;1.27;;;;;;;;;;5060820;28;20520;-89
2023/07/18 12:14:14;;;;;;;2.53;1.97;;;24.10;99.90;;;;;;5059803;28;20446;-89
2023/07/18 12:16:41;;;;;;;2.60;1.60;;;23.90;99.90;;;;;;5069798;28;20469;-89
2023/07/18 12:19:09;;;;;;;2.00;1.50;;;;;;;;;;5062896;28;20481;-89
2023/07/18 12:21:36;;;;;;;1.70;1.37;;;24.30;99.90;;;;;;5067114;28;20470;-89
2023/07/18 12:24:04;;;;;;;1.57;1.23;;;24.20;99.90;;;;;;5077513;28;20457;-89
2023/07/18 12:26:32;;;;;;;2.40;1.80;;;24.40;99.90;;;;;;5073248;28;20844;-89
2023/07/18 12:28:59;;;;;;;3.00;1.50;;;24.40;99.90;;;;;;5061404;28;20465;-89
2023/07/18 12:31:26;;;;;;;1.57;1.40;;;24.40;99.90;;;;;;5060370;28;20528;-90
2023/07/18 12:34:03;;;;;;;1.73;1.40;;;24.20;99.90;;;;;;5062890;28;20478;-87
2023/07/18 12:36:30;;;;;;;2.40;1.50;;;23.90;99.90;;;;;;5062217;28;20458;-90
2023/07/18 12:38:57;;;;;;;3.37;2.10;;;;;;;;;;5060587;28;20811;-89
2023/07/18 12:41:24;;;;;;;1.77;1.40;;;23.90;99.90;;;;;;5072008;28;20466;-89
2023/07/18 12:43:52;;;;;;;2.23;1.60;;;24.00;99.90;;;;;;5062845;28;20438;-89
2023/07/18 12:46:22;;;;;;;1.47;1.13;;;24.20;99.90;;;;;;5060508;28;20430;-89
2023/07/18 12:48:49;;;;;;;3.10;1.77;;;;;;;;;;5060581;28;20454;-89
2023/07/18 12:51:16;;;;;;;2.73;1.87;;;;;;;;;;5061177;28;20523;-89
2023/07/18 12:53:43;;;;;;;3.20;1.80;;;24.40;99.90;;;;;;5065558;28;20456;-89
2023/07/18 12:56:10;;;;;;;1.80;1.70;;;24.70;1.00;;;;;;5071713;28;20446;-89
2023/07/18 12:58:37;;;;;;;2.93;2.50;;;24.40;99.90;;;;;;5063538;28;20453;-89
2023/07/18 13:01:05;;;;;;;2.37;2.17;;;24.50;99.90;;;;;;5068809;28;20883;-89
2023/07/18 13:03:32;;;;;;;2.20;1.33;;;24.70;99.90;;;;;;5063672;28;20453;-89
2023/07/18 13:05:58;;;;;;;1.70;1.50;;;24.80;99.90;;;;;;5063925;28;20884;-89
2023/07/18 13:08:26;;;;;;;3.00;1.47;;;;;;;;;;5067481;28;20831;-89
2023/07/18 13:10:53;;;;;;;2.67;2.07;;;25.00;99.90;;;;;;5077184;28;20533;-88
2023/07/18 13:13:19;;;;;;;3.80;2.80;;;25.10;99.90;;;;;;5079315;28;20493;-89
2023/07/18 13:15:47;;;;;;;1.93;1.70;;;25.20;99.90;;;;;;5079755;28;20453;-88
2023/07/18 13:18:15;;;;;;;2.37;2.00;;;25.20;99.90;;;;;;5073960;28;20553;-88
2023/07/18 13:20:44;;;;;;;2.00;1.73;;;25.10;99.90;;;;;;5064704;28;20560;-88
2023/07/18 13:23:10;;;;;;;2.23;1.67;;;25.20;99.90;;;;;;5062868;28;20454;-88
2023/07/18 13:25:38;;;;;;;1.40;1.30;;;25.10;99.90;;;;;;5060696;28;20513;-88
2023/07/18 13:28:04;;;;;;;3.87;1.67;;;25.00;99.90;;;;;;5060513;28;20492;-88
2023/07/18 13:30:31;;;;;;;1.77;1.50;;;24.90;1.00;;;;;;5060807;28;20540;-88
2023/07/18 13:32:58;;;;;;;1.70;1.60;;;24.20;1.00;;;;;;5060280;28;20873;-88
2023/07/18 13:35:26;;;;;;;1.90;1.60;;;24.90;99.90;;;;;;5060283;28;20458;-88
2023/07/18 13:37:54;;;;;;;3.57;1.60;;;25.00;99.90;;;;;;5060921;28;20883;-87
2023/07/18 13:40:20;;;;;;;1.93;1.73;;;24.70;1.00;;;;;;5062541;28;20481;-88
2023/07/18 13:42:48;;;;;;;2.77;1.43;;;;;;;;;;5068443;28;20462;-87
2023/07/18 13:45:14;;;;;;;3.00;2.03;;;24.60;99.90;;;;;;5069890;28;20540;-87
2023/07/18 13:47:42;;;;;;;4.10;1.57;;;24.90;99.90;;;;;;5077505;28;20798;-88